createdAt,value
2023-03-05T00:01:11.378Z,4.51
2023-03-05T00:03:38.185Z,4.65
2023-03-05T00:06:04.980Z,4.61
2023-03-05T00:08:31.643Z,4.59
2023-03-05T00:11:02.022Z,4.16
2023-03-05T00:13:28.576Z,4.10
2023-03-05T00:15:55.222Z,4.37
2023-03-05T00:18:21.981Z,4.27
2023-03-05T00:20:48.605Z,4.49
2023-03-05T00:23:15.029Z,4.34
2023-03-05T00:25:41.526Z,4.26
2023-03-05T00:28:08.604Z,4.54
2023-03-05T00:30:35.762Z,4.42
2023-03-05T00:33:02.161Z,4.21
2023-03-05T00:35:28.589Z,3.99
2023-03-05T00:37:55.174Z,4.17
2023-03-05T00:40:21.718Z,4.11
2023-03-05T00:42:48.176Z,4.13
2023-03-05T00:45:14.556Z,3.82
2023-03-05T00:47:40.919Z,4.01
2023-03-05T00:50:07.840Z,4.03
2023-03-05T00:52:34.210Z,3.81
2023-03-05T00:55:00.587Z,3.96
2023-03-05T00:57:26.972Z,3.62
2023-03-05T00:59:53.348Z,3.69
2023-03-05T01:02:19.684Z,3.44
2023-03-05T01:04:47.175Z,3.53
2023-03-05T01:07:13.606Z,3.58
2023-03-05T01:09:39.946Z,3.64
2023-03-05T01:12:06.585Z,3.65
2023-03-05T01:14:34.535Z,3.70
2023-03-05T01:17:00.899Z,3.67
2023-03-05T01:19:27.397Z,3.76
2023-03-05T01:21:54.950Z,3.80
2023-03-05T01:24:22.085Z,3.98
2023-03-05T01:26:49.307Z,3.80
2023-03-05T01:29:15.883Z,3.60
2023-03-05T01:31:42.333Z,3.54
2023-03-05T01:34:08.737Z,3.52
2023-03-05T01:36:35.159Z,3.19
2023-03-05T01:39:02.591Z,3.56
2023-03-05T01:41:29.029Z,3.50
2023-03-05T01:43:55.437Z,3.45
2023-03-05T01:46:48.491Z,3.35
2023-03-05T01:49:27.764Z,3.31
2023-03-05T01:52:17.946Z,3.03
2023-03-05T01:54:57.356Z,3.01
2023-03-05T01:57:28.207Z,2.95
2023-03-05T02:00:00.660Z,3.14
2023-03-05T02:02:27.108Z,3.29
2023-03-05T02:05:03.682Z,3.49
2023-03-05T02:07:31.162Z,3.24
2023-03-05T02:09:57.590Z,3.31
2023-03-05T02:12:23.991Z,3.38
2023-03-05T02:14:58.339Z,3.47
2023-03-05T02:17:27.504Z,3.09
2023-03-05T02:19:56.958Z,3.35
2023-03-05T02:22:24.288Z,3.44
2023-03-05T02:24:51.196Z,3.32
2023-03-05T02:27:18.026Z,3.55
2023-03-05T02:29:46.250Z,3.47
2023-03-05T02:32:13.914Z,3.24
2023-03-05T02:34:40.425Z,3.35
2023-03-05T02:37:09.187Z,3.33
2023-03-05T02:39:36.292Z,3.21
2023-03-05T02:42:02.876Z,3.61
2023-03-05T02:44:29.226Z,3.48
2023-03-05T02:46:55.585Z,3.38
2023-03-05T02:49:21.941Z,3.33
2023-03-05T02:51:48.314Z,3.41
2023-03-05T02:54:14.653Z,3.39
2023-03-05T02:56:41.867Z,3.59
2023-03-05T02:59:08.300Z,3.23
2023-03-05T03:01:34.799Z,3.32
2023-03-05T03:04:01.247Z,3.26
2023-03-05T03:06:27.673Z,3.19
2023-03-05T03:08:54.056Z,3.21
2023-03-05T03:11:21.314Z,3.52
2023-03-05T03:13:47.722Z,3.47
2023-03-05T03:16:15.243Z,3.37
2023-03-05T03:18:41.734Z,3.29
2023-03-05T03:21:08.151Z,3.17
2023-03-05T03:23:34.914Z,3.22
2023-03-05T03:26:01.303Z,3.25
2023-03-05T03:28:27.721Z,3.08
2023-03-05T03:30:54.147Z,3.15
2023-03-05T03:33:20.529Z,3.25
2023-03-05T03:35:46.988Z,3.31
2023-03-05T03:38:13.796Z,3.30
2023-03-05T03:40:41.736Z,3.35
2023-03-05T03:43:08.302Z,3.15
2023-03-05T03:45:34.657Z,2.92
2023-03-05T03:48:01.026Z,3.05
2023-03-05T03:50:27.406Z,3.25
2023-03-05T03:52:53.746Z,3.21
2023-03-05T03:55:20.091Z,3.16
2023-03-05T03:57:46.503Z,3.19
2023-03-05T04:00:13.228Z,3.17
2023-03-05T04:02:40.037Z,2.91
2023-03-05T04:05:06.956Z,2.93
2023-03-05T04:07:33.331Z,2.91
2023-03-05T04:09:59.707Z,3.06
2023-03-05T04:12:26.146Z,3.19
2023-03-05T04:14:52.587Z,2.78
2023-03-05T04:17:18.983Z,2.64
2023-03-05T04:19:45.596Z,2.86
2023-03-05T04:22:14.297Z,2.93
2023-03-05T04:24:41.374Z,2.76
2023-03-05T04:27:07.767Z,2.61
2023-03-05T04:29:34.553Z,2.91
2023-03-05T04:32:01.710Z,2.97
2023-03-05T04:34:28.210Z,2.96
2023-03-05T04:36:54.860Z,2.62
2023-03-05T04:39:21.431Z,2.84
2023-03-05T04:41:48.310Z,2.97
2023-03-05T04:44:14.722Z,3.13
2023-03-05T04:46:41.263Z,2.68
2023-03-05T04:49:07.697Z,2.94
2023-03-05T04:51:34.073Z,2.95
2023-03-05T04:54:00.495Z,2.76
2023-03-05T04:56:26.910Z,2.93
2023-03-05T04:58:53.305Z,2.95
2023-03-05T05:01:19.742Z,3.09
2023-03-05T05:03:46.200Z,3.10
2023-03-05T05:06:12.604Z,2.96
2023-03-05T05:08:39.003Z,2.95
2023-03-05T05:11:07.355Z,2.82
2023-03-05T05:13:34.012Z,2.75
2023-03-05T05:16:00.456Z,2.92
2023-03-05T05:18:27.081Z,2.58
2023-03-05T05:20:53.481Z,2.51
2023-03-05T05:23:19.850Z,2.50
2023-03-05T05:25:46.257Z,2.69
2023-03-05T05:28:12.837Z,2.32
2023-03-05T05:30:39.282Z,2.28
2023-03-05T05:33:05.678Z,2.67
2023-03-05T05:35:32.086Z,2.97
2023-03-05T05:37:58.501Z,3.08
2023-03-05T05:40:24.951Z,3.08
2023-03-05T05:42:51.339Z,3.00
2023-03-05T05:45:17.845Z,3.05
2023-03-05T05:47:44.336Z,2.52
2023-03-05T05:50:11.412Z,2.96
2023-03-05T05:52:37.830Z,2.41
2023-03-05T05:55:04.583Z,2.53
2023-03-05T05:57:31.010Z,2.62
2023-03-05T05:59:57.455Z,2.38
2023-03-05T06:02:23.978Z,2.54
2023-03-05T06:04:50.395Z,2.61
2023-03-05T06:07:16.784Z,2.60
2023-03-05T06:09:43.206Z,2.76
2023-03-05T06:12:09.595Z,2.63
2023-03-05T06:14:35.984Z,2.68
2023-03-05T06:17:02.389Z,2.89
2023-03-05T06:19:28.788Z,2.98
2023-03-05T06:21:55.170Z,2.88
2023-03-05T06:24:22.217Z,2.97
2023-03-05T06:26:49.184Z,3.16
2023-03-05T06:29:16.531Z,3.01
2023-03-05T06:31:42.915Z,3.12
2023-03-05T06:34:10.078Z,3.24
2023-03-05T06:36:36.455Z,3.36
2023-03-05T06:39:04.499Z,3.17
2023-03-05T06:41:32.475Z,3.20
2023-03-05T06:44:00.352Z,3.29
2023-03-05T06:46:28.780Z,2.89
2023-03-05T06:48:57.143Z,2.77
2023-03-05T06:51:28.020Z,2.47
2023-03-05T06:53:55.121Z,2.85
2023-03-05T06:56:22.199Z,2.69
2023-03-05T06:58:50.794Z,2.24
2023-03-05T07:01:18.363Z,2.74
2023-03-05T07:03:44.982Z,3.09
2023-03-05T07:06:14.421Z,2.79
2023-03-05T07:08:40.969Z,2.87
2023-03-05T07:11:19.426Z,2.93
2023-03-05T07:13:47.720Z,2.98
2023-03-05T07:16:21.505Z,3.20
2023-03-05T07:18:48.863Z,2.70
2023-03-05T07:21:18.457Z,2.59
2023-03-05T07:23:44.904Z,2.88
2023-03-05T07:26:12.213Z,3.18
2023-03-05T07:28:38.647Z,3.18
2023-03-05T07:31:08.255Z,3.23
2023-03-05T07:33:37.032Z,2.93
2023-03-05T07:36:04.834Z,3.39
2023-03-05T07:38:31.849Z,2.75
2023-03-05T07:41:05.685Z,3.05
2023-03-05T07:43:32.085Z,3.00
2023-03-05T07:45:58.582Z,3.39
2023-03-05T07:48:25.300Z,3.59
2023-03-05T07:51:03.080Z,3.11
2023-03-05T07:53:29.453Z,3.44
2023-03-05T07:55:55.842Z,3.11
2023-03-05T07:58:22.236Z,3.55
2023-03-05T08:00:48.930Z,3.15
2023-03-05T08:03:15.368Z,3.67
2023-03-05T08:05:42.468Z,3.95
2023-03-05T08:08:09.494Z,3.36
2023-03-05T08:10:36.560Z,3.50
2023-03-05T08:13:03.218Z,3.96
2023-03-05T08:15:31.529Z,3.53
2023-03-05T08:17:58.558Z,3.82
2023-03-05T08:20:25.064Z,3.97
2023-03-05T08:22:51.639Z,3.83
2023-03-05T08:25:18.031Z,3.46
2023-03-05T08:27:45.919Z,3.65
2023-03-05T08:30:18.426Z,3.82
2023-03-05T08:32:45.011Z,3.65
2023-03-05T08:35:11.777Z,3.95
2023-03-05T08:37:38.234Z,3.92
2023-03-05T08:40:05.208Z,4.02
2023-03-05T08:42:31.731Z,3.64
2023-03-05T08:44:58.301Z,3.87
2023-03-05T08:47:26.564Z,3.79
2023-03-05T08:49:55.541Z,3.67
2023-03-05T08:52:22.541Z,3.69
2023-03-05T08:54:49.127Z,3.79
2023-03-05T08:57:15.528Z,3.73
2023-03-05T08:59:41.984Z,3.85
2023-03-05T09:02:11.271Z,3.70
2023-03-05T09:04:37.732Z,3.84
2023-03-05T09:07:04.279Z,3.72
2023-03-05T09:09:32.584Z,3.73
2023-03-05T09:11:59.844Z,3.76
2023-03-05T09:14:28.270Z,3.98
2023-03-05T09:16:55.878Z,4.23
2023-03-05T09:19:22.371Z,4.22
2023-03-05T09:21:48.761Z,4.04
2023-03-05T09:24:15.181Z,4.16
2023-03-05T09:26:42.234Z,3.77
2023-03-05T09:29:09.157Z,3.76
2023-03-05T09:31:36.757Z,3.90
2023-03-05T09:34:04.185Z,4.03
2023-03-05T09:36:31.613Z,4.20
2023-03-05T09:38:58.541Z,4.21
2023-03-05T09:41:31.145Z,4.19
2023-03-05T09:44:00.497Z,4.54
2023-03-05T09:46:29.819Z,4.62
2023-03-05T09:49:16.103Z,4.32
2023-03-05T09:51:46.494Z,4.19
2023-03-05T09:54:26.759Z,4.38
2023-03-05T09:56:58.365Z,4.27
2023-03-05T09:59:47.918Z,3.56
2023-03-05T10:02:21.217Z,3.67
2023-03-05T10:05:13.599Z,3.47
2023-03-05T10:07:42.077Z,4.14
2023-03-05T10:10:24.632Z,4.51
2023-03-05T10:12:52.682Z,4.14
2023-03-05T10:15:32.219Z,4.82
2023-03-05T10:17:58.532Z,5.26
2023-03-05T10:20:44.611Z,5.12
2023-03-05T10:23:24.526Z,5.17
2023-03-05T10:26:04.303Z,5.08
2023-03-05T10:28:53.837Z,5.08
2023-03-05T10:31:21.497Z,5.04
2023-03-05T10:33:53.567Z,4.44
2023-03-05T10:36:19.825Z,4.10
2023-03-05T10:39:09.343Z,3.90
2023-03-05T10:41:49.519Z,3.97
2023-03-05T10:44:40.713Z,4.42
2023-03-05T10:47:20.682Z,4.75
2023-03-05T10:49:50.858Z,4.67
2023-03-05T10:52:19.767Z,4.64
2023-03-05T10:54:46.165Z,5.00
2023-03-05T10:57:12.504Z,5.24
2023-03-05T10:59:48.368Z,5.20
2023-03-05T11:02:14.883Z,5.40
2023-03-05T11:04:41.421Z,5.36
2023-03-05T11:07:32.587Z,5.28
2023-03-05T11:10:17.168Z,4.66
2023-03-05T11:12:43.781Z,5.32
2023-03-05T11:15:10.169Z,5.72
2023-03-05T11:17:44.800Z,6.38
2023-03-05T11:20:26.541Z,6.18
2023-03-05T11:23:08.630Z,5.85
2023-03-05T11:25:35.562Z,6.08
2023-03-05T11:28:03.572Z,5.84
2023-03-05T11:30:32.551Z,5.33
2023-03-05T11:33:20.285Z,5.11
2023-03-05T11:35:48.209Z,5.00
2023-03-05T11:38:18.799Z,5.03
2023-03-05T11:40:45.947Z,4.83
2023-03-05T11:43:21.045Z,5.42
2023-03-05T11:45:49.647Z,5.90
2023-03-05T11:48:19.724Z,5.59
2023-03-05T11:50:49.820Z,6.01
2023-03-05T11:53:22.625Z,6.23
2023-03-05T11:55:52.248Z,5.89
2023-03-05T11:58:36.052Z,6.14
2023-03-05T12:01:06.083Z,5.78
2023-03-05T12:03:35.583Z,5.98
2023-03-05T12:06:52.965Z,6.05
2023-03-05T12:09:42.217Z,6.00
2023-03-05T12:12:28.520Z,6.23
2023-03-05T12:15:09.832Z,6.13
2023-03-05T12:17:42.287Z,6.22
2023-03-05T12:20:20.607Z,6.55
2023-03-05T12:22:47.109Z,5.96
2023-03-05T12:25:25.009Z,6.25
2023-03-05T12:27:51.400Z,5.95
2023-03-05T12:30:49.988Z,6.19
2023-03-05T12:33:34.481Z,6.29
2023-03-05T12:36:33.892Z,6.41
2023-03-05T12:39:00.404Z,6.32
2023-03-05T12:41:31.004Z,6.70
2023-03-05T12:44:07.595Z,6.50
2023-03-05T12:46:38.563Z,6.24
2023-03-05T12:49:20.293Z,5.96
2023-03-05T12:51:48.261Z,5.80
2023-03-05T12:54:39.582Z,5.36
2023-03-05T12:57:13.808Z,5.83
2023-03-05T12:59:44.154Z,6.03
2023-03-05T13:02:21.002Z,5.27
2023-03-05T13:04:48.298Z,5.74
2023-03-05T13:07:17.262Z,5.91
2023-03-05T13:09:54.635Z,6.00
2023-03-05T13:12:21.778Z,5.54
2023-03-05T13:14:58.081Z,6.50
2023-03-05T13:17:26.713Z,7.11
2023-03-05T13:19:53.076Z,6.68
2023-03-05T13:22:19.428Z,6.29
2023-03-05T13:24:46.924Z,6.34
2023-03-05T13:27:24.416Z,7.00
2023-03-05T13:29:52.451Z,7.38
2023-03-05T13:32:25.624Z,6.99
2023-03-05T13:34:54.619Z,7.30
2023-03-05T13:37:24.087Z,6.79
2023-03-05T13:40:00.457Z,5.97
2023-03-05T13:42:28.557Z,6.40
2023-03-05T13:44:54.963Z,6.99
2023-03-05T13:47:23.078Z,6.90
2023-03-05T13:50:01.143Z,7.26
2023-03-05T13:52:30.717Z,7.61
2023-03-05T13:54:58.259Z,7.36
2023-03-05T13:57:50.546Z,7.97
2023-03-05T14:00:34.686Z,8.14
2023-03-05T14:03:10.005Z,8.02
2023-03-05T14:05:36.782Z,8.37
2023-03-05T14:08:03.406Z,7.84
2023-03-05T14:10:32.344Z,7.98
2023-03-05T14:13:00.106Z,8.40
2023-03-05T14:15:32.161Z,9.05
2023-03-05T14:18:10.692Z,9.73
2023-03-05T14:20:37.590Z,9.76
2023-03-05T14:23:32.683Z,9.45
2023-03-05T14:26:19.868Z,10.25
2023-03-05T14:29:04.583Z,10.33
2023-03-05T14:31:35.432Z,9.28
2023-03-05T14:34:04.255Z,7.82
2023-03-05T14:36:31.188Z,7.72
2023-03-05T14:38:58.024Z,8.04
2023-03-05T14:41:24.317Z,8.53
2023-03-05T14:43:50.795Z,8.73
2023-03-05T14:46:17.455Z,8.19
2023-03-05T14:48:43.912Z,7.51
2023-03-05T14:51:10.851Z,6.92
2023-03-05T14:53:46.299Z,7.08
2023-03-05T14:56:21.620Z,6.95
2023-03-05T14:58:47.979Z,6.77
2023-03-05T15:01:14.433Z,6.76
2023-03-05T15:03:41.451Z,6.76
2023-03-05T15:06:30.475Z,6.82
2023-03-05T15:08:56.864Z,6.80
2023-03-05T15:11:23.376Z,6.60
2023-03-05T15:13:52.557Z,6.36
2023-03-05T15:16:19.641Z,6.56
2023-03-05T15:18:46.365Z,6.39
2023-03-05T15:21:12.829Z,5.80
2023-03-05T15:23:39.401Z,5.91
2023-03-05T15:26:07.886Z,6.22
2023-03-05T15:28:36.446Z,6.29
2023-03-05T15:31:04.212Z,6.29
2023-03-05T15:33:30.953Z,6.18
2023-03-05T15:35:57.899Z,6.34
2023-03-05T15:38:24.957Z,6.47
2023-03-05T15:40:51.917Z,6.35
2023-03-05T15:43:19.064Z,6.10
2023-03-05T15:45:45.824Z,5.86
2023-03-05T15:48:12.372Z,6.06
2023-03-05T15:50:43.585Z,5.88
2023-03-05T15:53:12.017Z,6.28
2023-03-05T15:55:43.398Z,6.24
2023-03-05T15:58:09.890Z,6.56
2023-03-05T16:00:40.668Z,6.00
2023-03-05T16:03:07.069Z,6.37
2023-03-05T16:05:34.802Z,6.06
2023-03-05T16:08:01.511Z,6.44
2023-03-05T16:10:28.907Z,6.58
2023-03-05T16:12:58.850Z,6.60
2023-03-05T16:15:25.347Z,6.52
2023-03-05T16:17:54.704Z,6.32
2023-03-05T16:20:22.002Z,6.16
2023-03-05T16:22:49.245Z,6.07
2023-03-05T16:25:16.091Z,6.18
2023-03-05T16:27:42.439Z,5.89
2023-03-05T16:30:09.276Z,6.12
2023-03-05T16:32:37.549Z,6.14
2023-03-05T16:35:04.354Z,6.19
2023-03-05T16:37:30.774Z,6.14
2023-03-05T16:40:00.265Z,5.74
2023-03-05T16:42:26.815Z,5.80
2023-03-05T16:44:53.208Z,5.79
2023-03-05T16:47:19.872Z,5.54
2023-03-05T16:49:46.242Z,5.69
2023-03-05T16:52:18.688Z,5.52
2023-03-05T16:54:46.143Z,5.68
2023-03-05T16:57:12.569Z,5.62
2023-03-05T16:59:39.110Z,5.61
2023-03-05T17:02:05.870Z,5.80
2023-03-05T17:04:32.616Z,5.33
2023-03-05T17:06:59.029Z,5.45
2023-03-05T17:09:25.404Z,5.52
2023-03-05T17:11:52.360Z,5.64
2023-03-05T17:14:19.027Z,5.23
2023-03-05T17:16:45.573Z,5.24
2023-03-05T17:19:12.220Z,5.50
2023-03-05T17:21:41.878Z,5.41
2023-03-05T17:24:09.295Z,5.26
2023-03-05T17:26:36.458Z,4.94
2023-03-05T17:29:04.183Z,5.24
2023-03-05T17:31:30.608Z,5.12
2023-03-05T17:33:57.224Z,4.88
2023-03-05T17:36:24.182Z,4.76
2023-03-05T17:38:51.307Z,4.96
2023-03-05T17:41:18.505Z,5.31
2023-03-05T17:43:45.206Z,5.21
2023-03-05T17:46:12.464Z,5.21
2023-03-05T17:48:39.322Z,5.15
2023-03-05T17:51:10.603Z,5.07
2023-03-05T17:53:38.806Z,5.03
2023-03-05T17:56:10.225Z,4.94
2023-03-05T17:58:37.044Z,4.91
2023-03-05T18:01:04.560Z,4.90
2023-03-05T18:03:31.121Z,4.74
2023-03-05T18:05:57.556Z,4.80
2023-03-05T18:08:23.974Z,4.85
2023-03-05T18:10:50.372Z,4.85
2023-03-05T18:13:16.965Z,4.75
2023-03-05T18:15:47.516Z,4.83
2023-03-05T18:18:15.462Z,4.81
2023-03-05T18:20:41.890Z,4.73
2023-03-05T18:23:09.820Z,4.78
2023-03-05T18:25:36.249Z,4.81
2023-03-05T18:28:07.799Z,4.83
2023-03-05T18:30:34.517Z,4.87
2023-03-05T18:33:01.225Z,4.89
2023-03-05T18:35:29.190Z,4.91
2023-03-05T18:37:55.808Z,4.84
2023-03-05T18:40:23.804Z,4.86
2023-03-05T18:42:50.580Z,4.87
2023-03-05T18:45:18.613Z,4.89
2023-03-05T18:47:45.075Z,4.94
2023-03-05T18:50:14.712Z,4.67
2023-03-05T18:52:42.126Z,4.65
2023-03-05T18:55:11.047Z,4.61
2023-03-05T18:57:37.476Z,4.71
2023-03-05T19:00:04.315Z,4.86
2023-03-05T19:02:30.680Z,4.87
2023-03-05T19:04:59.254Z,4.93
2023-03-05T19:07:25.679Z,4.90
2023-03-05T19:10:03.329Z,4.94
2023-03-05T19:12:34.994Z,4.92
2023-03-05T19:15:02.371Z,4.79
2023-03-05T19:17:30.543Z,4.85
2023-03-05T19:19:58.800Z,4.95
2023-03-05T19:22:26.725Z,4.85
2023-03-05T19:24:53.842Z,4.85
2023-03-05T19:27:20.235Z,4.86
2023-03-05T19:29:46.710Z,4.95
2023-03-05T19:32:15.881Z,4.89
2023-03-05T19:34:42.482Z,4.81
2023-03-05T19:37:09.186Z,4.54
2023-03-05T19:39:35.620Z,4.58
2023-03-05T19:42:02.034Z,4.62
2023-03-05T19:44:28.625Z,4.52
2023-03-05T19:46:55.002Z,4.47
2023-03-05T19:49:21.440Z,4.35
2023-03-05T19:51:48.336Z,4.46
2023-03-05T19:54:16.224Z,4.29
2023-03-05T19:56:43.642Z,4.22
2023-03-05T19:59:10.490Z,4.20
2023-03-05T20:01:36.914Z,4.07
2023-03-05T20:04:04.469Z,4.02
2023-03-05T20:06:32.052Z,4.07
2023-03-05T20:08:59.032Z,4.00
2023-03-05T20:11:25.905Z,4.05
2023-03-05T20:13:53.422Z,4.21
2023-03-05T20:16:29.526Z,4.23
2023-03-05T20:18:56.871Z,4.27
2023-03-05T20:21:28.964Z,4.31
2023-03-05T20:23:56.093Z,4.12
2023-03-05T20:26:25.648Z,4.11
2023-03-05T20:28:55.468Z,4.10
2023-03-05T20:31:23.956Z,4.14
2023-03-05T20:33:50.835Z,4.14
2023-03-05T20:36:17.449Z,3.93
2023-03-05T20:38:45.626Z,3.89
2023-03-05T20:41:14.968Z,3.81
2023-03-05T20:43:44.681Z,3.86
2023-03-05T20:46:32.235Z,3.73
2023-03-05T20:49:00.445Z,3.76
2023-03-05T20:51:28.906Z,3.62
2023-03-05T20:53:58.399Z,3.77
2023-03-05T20:56:26.837Z,3.81
2023-03-05T20:58:54.191Z,3.70
2023-03-05T21:01:20.723Z,3.68
2023-03-05T21:03:47.643Z,3.63
2023-03-05T21:06:14.082Z,3.60
2023-03-05T21:08:40.462Z,3.68
2023-03-05T21:11:08.261Z,3.72
2023-03-05T21:13:34.965Z,3.77
2023-03-05T21:16:05.679Z,3.74
2023-03-05T21:18:32.204Z,3.67
2023-03-05T21:20:58.581Z,3.82
2023-03-05T21:23:24.984Z,3.80
2023-03-05T21:25:51.394Z,3.75
2023-03-05T21:28:18.678Z,3.79
2023-03-05T21:30:51.958Z,3.81
2023-03-05T21:33:23.030Z,3.70
2023-03-05T21:35:52.784Z,3.73
2023-03-05T21:38:25.517Z,3.69
2023-03-05T21:40:53.656Z,3.61
2023-03-05T21:43:21.902Z,3.56
2023-03-05T21:45:49.166Z,3.72
2023-03-05T21:48:15.847Z,3.83
2023-03-05T21:50:44.315Z,3.73
2023-03-05T21:53:15.235Z,3.70
2023-03-05T21:55:54.054Z,3.58
2023-03-05T21:58:20.475Z,3.60
2023-03-05T22:00:46.874Z,3.56
2023-03-05T22:03:13.270Z,3.61
2023-03-05T22:05:42.556Z,3.81
2023-03-05T22:08:08.964Z,3.99
2023-03-05T22:10:35.397Z,4.10
2023-03-05T22:13:02.590Z,4.02
2023-03-05T22:15:29.116Z,3.85
2023-03-05T22:17:55.509Z,3.82
2023-03-05T22:20:21.894Z,3.89
2023-03-05T22:22:48.463Z,3.84
2023-03-05T22:25:15.557Z,3.81
2023-03-05T22:27:43.053Z,3.68
2023-03-05T22:30:11.079Z,3.78
2023-03-05T22:32:37.932Z,3.77
2023-03-05T22:35:06.230Z,3.61
2023-03-05T22:37:33.224Z,3.60
2023-03-05T22:39:59.609Z,3.63
2023-03-05T22:42:25.988Z,3.72
2023-03-05T22:44:57.306Z,3.69
2023-03-05T22:47:24.788Z,3.70
2023-03-05T22:49:51.177Z,3.78
2023-03-05T22:52:17.546Z,3.78
2023-03-05T22:54:43.900Z,3.89
2023-03-05T22:57:10.307Z,3.78
2023-03-05T22:59:36.705Z,3.81
2023-03-05T23:02:03.133Z,3.77
2023-03-05T23:04:48.811Z,3.82
2023-03-05T23:07:26.128Z,3.87
2023-03-05T23:09:54.840Z,3.83
2023-03-05T23:12:21.904Z,3.68
2023-03-05T23:14:48.300Z,3.85
2023-03-05T23:17:14.761Z,3.84
2023-03-05T23:19:41.262Z,3.87
2023-03-05T23:22:08.660Z,3.81
2023-03-05T23:24:36.152Z,3.71
2023-03-05T23:27:05.322Z,3.70
2023-03-05T23:29:38.349Z,3.80
2023-03-05T23:32:05.096Z,3.73
2023-03-05T23:34:31.495Z,3.66
2023-03-05T23:37:00.085Z,3.76
2023-03-05T23:39:26.458Z,3.76
2023-03-05T23:41:52.826Z,3.70
2023-03-05T23:44:19.190Z,3.63
2023-03-05T23:46:45.594Z,3.69
2023-03-05T23:49:12.004Z,3.81
2023-03-05T23:51:38.403Z,3.74
2023-03-05T23:54:05.019Z,3.68
2023-03-05T23:56:32.051Z,3.76
2023-03-05T23:59:00.512Z,3.73
